createdAt,value
2023-01-22T00:00:26.702Z,6.18
2023-01-22T00:01:26.701Z,6.22
2023-01-22T00:02:26.773Z,6.27
2023-01-22T00:03:26.740Z,6.28
2023-01-22T00:04:26.682Z,6.28
2023-01-22T00:05:26.683Z,6.21
2023-01-22T00:06:26.668Z,6.25
2023-01-22T00:07:26.672Z,6.27
2023-01-22T00:08:26.659Z,6.37
2023-01-22T00:09:26.659Z,6.19
2023-01-22T00:10:26.646Z,6.18
2023-01-22T00:11:26.658Z,6.25
2023-01-22T00:12:26.643Z,6.25
2023-01-22T00:13:26.637Z,6.28
2023-01-22T00:14:26.678Z,6.08
2023-01-22T00:15:26.623Z,6.12
2023-01-22T00:16:26.614Z,6.04
2023-01-22T00:17:26.625Z,6.12
2023-01-22T00:18:26.631Z,6.14
2023-01-22T00:19:26.607Z,6.27
2023-01-22T00:20:26.606Z,6.14
2023-01-22T00:21:26.599Z,6.25
2023-01-22T00:22:26.587Z,6.17
2023-01-22T00:23:26.595Z,6.25
2023-01-22T00:24:26.575Z,6.28
2023-01-22T00:25:26.573Z,6.31
2023-01-22T00:26:26.565Z,6.17
2023-01-22T00:27:26.565Z,6.14
2023-01-22T00:28:26.556Z,6.21
2023-01-22T00:29:26.553Z,6.34
2023-01-22T00:30:26.548Z,6.38
2023-01-22T00:31:26.692Z,6.38
2023-01-22T00:32:26.539Z,6.28
2023-01-22T00:33:26.570Z,6.22
2023-01-22T00:34:26.554Z,6.25
2023-01-22T00:35:26.523Z,6.19
2023-01-22T00:36:26.515Z,6.21
2023-01-22T00:37:26.514Z,6.22
2023-01-22T00:38:26.499Z,6.22
2023-01-22T00:39:26.499Z,6.34
2023-01-22T00:40:26.495Z,6.27
2023-01-22T00:41:26.496Z,6.27
2023-01-22T00:42:26.483Z,6.30
2023-01-22T00:43:26.486Z,6.34
2023-01-22T00:44:26.473Z,6.40
2023-01-22T00:45:26.478Z,6.37
2023-01-22T00:46:26.541Z,6.33
2023-01-22T00:47:26.462Z,6.43
2023-01-22T00:48:26.489Z,6.38
2023-01-22T00:49:26.446Z,6.27
2023-01-22T00:50:26.461Z,6.46
2023-01-22T00:51:26.520Z,6.49
2023-01-22T00:52:26.441Z,6.46
2023-01-22T00:53:26.439Z,6.49
2023-01-22T00:54:26.420Z,6.52
2023-01-22T00:55:26.433Z,6.52
2023-01-22T00:56:26.407Z,6.54
2023-01-22T00:57:26.424Z,6.51
2023-01-22T00:58:26.400Z,6.43
2023-01-22T00:59:26.395Z,6.37
2023-01-22T01:00:26.484Z,6.41
2023-01-22T01:01:26.390Z,6.41
2023-01-22T01:02:26.378Z,6.41
2023-01-22T01:03:26.382Z,6.44
2023-01-22T01:04:26.369Z,6.40
2023-01-22T01:05:26.368Z,6.17
2023-01-22T01:06:26.359Z,6.28
2023-01-22T01:07:26.357Z,6.36
2023-01-22T01:08:26.350Z,6.27
2023-01-22T01:09:26.345Z,6.48
2023-01-22T01:10:26.338Z,6.49
2023-01-22T01:11:26.342Z,6.46
2023-01-22T01:12:26.333Z,6.41
2023-01-22T01:13:26.441Z,6.46
2023-01-22T01:14:26.319Z,6.55
2023-01-22T01:15:26.315Z,6.46
2023-01-22T01:16:26.333Z,6.64
2023-01-22T01:17:26.306Z,6.49
2023-01-22T01:18:26.296Z,6.54
2023-01-22T01:19:26.303Z,6.44
2023-01-22T01:20:26.291Z,6.49
2023-01-22T01:21:26.287Z,6.48
2023-01-22T01:22:26.277Z,6.41
2023-01-22T01:23:26.279Z,6.21
2023-01-22T01:24:26.264Z,6.27
2023-01-22T01:25:26.263Z,6.27
2023-01-22T01:26:26.258Z,6.33
2023-01-22T01:27:26.251Z,6.34
2023-01-22T01:28:26.248Z,6.30
2023-01-22T01:29:26.361Z,6.34
2023-01-22T01:30:26.242Z,6.38
2023-01-22T01:31:26.631Z,6.44
2023-01-22T01:32:26.226Z,6.28
2023-01-22T01:33:26.231Z,6.37
2023-01-22T01:34:26.214Z,6.30
2023-01-22T01:35:26.216Z,6.43
2023-01-22T01:36:48.829Z,6.40
2023-01-22T01:37:26.202Z,6.43
2023-01-22T01:38:26.196Z,6.33
2023-01-22T01:39:26.196Z,6.40
2023-01-22T01:40:26.185Z,6.46
2023-01-22T01:41:26.185Z,6.37
2023-01-22T01:42:26.169Z,6.40
2023-01-22T01:43:26.182Z,6.34
2023-01-22T01:44:26.166Z,6.38
2023-01-22T01:45:26.279Z,6.36
2023-01-22T01:46:26.186Z,6.28
2023-01-22T01:47:26.154Z,6.27
2023-01-22T01:48:26.149Z,6.11
2023-01-22T01:49:26.141Z,6.19
2023-01-22T01:50:26.133Z,6.18
2023-01-22T01:51:26.129Z,6.18
2023-01-22T01:52:26.122Z,6.25
2023-01-22T01:53:26.132Z,6.21
2023-01-22T01:54:26.115Z,6.33
2023-01-22T01:55:26.112Z,6.36
2023-01-22T01:56:26.105Z,6.27
2023-01-22T01:57:26.104Z,6.30
2023-01-22T01:58:26.090Z,6.25
2023-01-22T01:59:26.089Z,6.30
2023-01-22T02:00:26.142Z,6.18
2023-01-22T02:01:26.228Z,6.22
2023-01-22T02:02:26.077Z,6.19
2023-01-22T02:03:26.081Z,6.17
2023-01-22T02:04:26.068Z,6.14
2023-01-22T02:05:26.058Z,6.21
2023-01-22T02:06:26.057Z,6.21
2023-01-22T02:07:26.050Z,6.34
2023-01-22T02:08:26.040Z,6.27
2023-01-22T02:09:26.042Z,6.33
2023-01-22T02:10:26.030Z,6.28
2023-01-22T02:11:26.031Z,6.34
2023-01-22T02:12:26.023Z,6.19
2023-01-22T02:13:26.022Z,6.19
2023-01-22T02:14:26.010Z,6.27
2023-01-22T02:15:26.012Z,6.27
2023-01-22T02:16:26.115Z,6.33
2023-01-22T02:17:31.928Z,6.27
2023-01-22T02:18:26.119Z,6.37
2023-01-22T02:19:26.094Z,6.30
2023-01-22T02:20:25.978Z,6.37
2023-01-22T02:21:25.979Z,6.37
2023-01-22T02:22:25.968Z,6.30
2023-01-22T02:23:25.971Z,6.30
2023-01-22T02:24:25.965Z,6.30
2023-01-22T02:25:25.959Z,6.34
2023-01-22T02:26:25.946Z,6.22
2023-01-22T02:27:25.955Z,6.30
2023-01-22T02:28:25.939Z,6.31
2023-01-22T02:29:25.938Z,6.19
2023-01-22T02:30:25.928Z,6.09
2023-01-22T02:31:25.961Z,6.25
2023-01-22T02:32:25.925Z,6.33
2023-01-22T02:33:25.917Z,6.30
2023-01-22T02:34:26.027Z,6.30
2023-01-22T02:35:25.912Z,6.31
2023-01-22T02:36:25.903Z,6.41
2023-01-22T02:37:25.906Z,6.36
2023-01-22T02:38:25.885Z,6.40
2023-01-22T02:39:25.892Z,6.40
2023-01-22T02:40:25.881Z,6.41
2023-01-22T02:41:25.878Z,6.49
2023-01-22T02:42:25.870Z,6.49
2023-01-22T02:43:26.186Z,6.44
2023-01-22T02:44:25.860Z,6.55
2023-01-22T02:45:25.893Z,6.52
2023-01-22T02:46:25.893Z,6.46
2023-01-22T02:47:25.851Z,6.49
2023-01-22T02:48:25.842Z,6.41
2023-01-22T02:49:25.839Z,6.37
2023-01-22T02:50:31.792Z,6.30
2023-01-22T02:51:25.949Z,6.17
2023-01-22T02:52:25.817Z,6.33
2023-01-22T02:53:25.817Z,6.25
2023-01-22T02:54:25.814Z,6.21
2023-01-22T02:55:25.808Z,6.14
2023-01-22T02:56:25.800Z,6.15
2023-01-22T02:57:25.798Z,6.14
2023-01-22T02:58:25.787Z,6.22
2023-01-22T02:59:25.784Z,6.18
2023-01-22T03:00:25.794Z,6.15
2023-01-22T03:01:25.781Z,6.25
2023-01-22T03:02:25.865Z,6.15
2023-01-22T03:03:25.764Z,6.25
2023-01-22T03:04:25.762Z,6.17
2023-01-22T03:05:25.757Z,6.31
2023-01-22T03:06:25.772Z,6.17
2023-01-22T03:07:25.871Z,6.34
2023-01-22T03:08:25.736Z,6.22
2023-01-22T03:09:25.732Z,6.17
2023-01-22T03:10:25.730Z,6.19
2023-01-22T03:11:25.722Z,6.31
2023-01-22T03:12:25.725Z,6.27
2023-01-22T03:13:25.724Z,6.11
2023-01-22T03:14:25.708Z,6.15
2023-01-22T03:15:25.708Z,6.09
2023-01-22T03:16:25.741Z,6.03
2023-01-22T03:17:25.691Z,6.19
2023-01-22T03:18:25.683Z,6.22
2023-01-22T03:19:25.682Z,6.30
2023-01-22T03:20:25.674Z,6.27
2023-01-22T03:21:25.676Z,6.19
2023-01-22T03:22:25.665Z,6.18
2023-01-22T03:23:25.785Z,6.11
2023-01-22T03:24:25.651Z,6.17
2023-01-22T03:25:25.657Z,6.18
2023-01-22T03:26:25.647Z,6.09
2023-01-22T03:27:25.655Z,6.18
2023-01-22T03:28:25.631Z,6.17
2023-01-22T03:29:25.628Z,6.09
2023-01-22T03:30:25.629Z,6.18
2023-01-22T03:31:25.834Z,6.25
2023-01-22T03:32:25.618Z,6.19
2023-01-22T03:33:25.635Z,6.18
2023-01-22T03:34:25.604Z,6.12
2023-01-22T03:35:25.595Z,6.15
2023-01-22T03:36:25.592Z,6.25
2023-01-22T03:37:25.589Z,6.17
2023-01-22T03:38:25.586Z,6.25
2023-01-22T03:39:25.702Z,6.22
2023-01-22T03:40:25.574Z,6.28
2023-01-22T03:41:25.567Z,6.33
2023-01-22T03:42:25.564Z,6.17
2023-01-22T03:43:25.555Z,6.19
2023-01-22T03:44:25.552Z,6.18
2023-01-22T03:45:25.555Z,5.97
2023-01-22T03:46:25.549Z,6.19
2023-01-22T03:47:25.542Z,6.06
2023-01-22T03:48:25.538Z,6.08
2023-01-22T03:49:25.523Z,6.12
2023-01-22T03:50:25.521Z,6.12
2023-01-22T03:51:25.567Z,6.08
2023-01-22T03:52:25.514Z,6.14
2023-01-22T03:53:25.505Z,6.22
2023-01-22T03:54:25.503Z,6.22
2023-01-22T03:55:25.608Z,6.28
2023-01-22T03:56:25.492Z,6.27
2023-01-22T03:57:25.487Z,6.21
2023-01-22T03:58:25.493Z,6.31
2023-01-22T03:59:25.474Z,6.34
2023-01-22T04:00:25.478Z,6.36
2023-01-22T04:01:25.528Z,6.31
2023-01-22T04:02:25.499Z,6.08
2023-01-22T04:03:25.454Z,6.12
2023-01-22T04:04:25.454Z,6.18
2023-01-22T04:05:25.442Z,6.12
2023-01-22T04:06:25.450Z,6.06
2023-01-22T04:07:25.437Z,6.14
2023-01-22T04:08:25.434Z,6.09
2023-01-22T04:09:25.419Z,6.17
2023-01-22T04:10:25.419Z,6.04
2023-01-22T04:11:25.537Z,6.00
2023-01-22T04:12:25.410Z,6.15
2023-01-22T04:13:25.402Z,6.08
2023-01-22T04:14:25.407Z,5.99
2023-01-22T04:15:25.391Z,5.90
2023-01-22T04:16:25.441Z,5.97
2023-01-22T04:17:26.796Z,5.97
2023-01-22T04:18:25.383Z,5.99
2023-01-22T04:19:25.377Z,6.00
2023-01-22T04:20:25.374Z,5.97
2023-01-22T04:21:25.363Z,6.01
2023-01-22T04:22:25.363Z,5.97
2023-01-22T04:23:25.357Z,6.04
2023-01-22T04:24:25.351Z,5.94
2023-01-22T04:25:25.343Z,6.14
2023-01-22T04:26:25.340Z,6.09
2023-01-22T04:27:25.455Z,6.12
2023-01-22T04:28:25.630Z,6.11
2023-01-22T04:29:25.328Z,5.97
2023-01-22T04:30:25.444Z,6.14
2023-01-22T04:31:25.406Z,6.18
2023-01-22T04:32:25.312Z,6.08
2023-01-22T04:33:25.317Z,6.22
2023-01-22T04:34:25.298Z,6.08
2023-01-22T04:35:25.293Z,5.96
2023-01-22T04:36:27.425Z,6.01
2023-01-22T04:37:25.283Z,6.12
2023-01-22T04:38:25.279Z,5.99
2023-01-22T04:39:25.277Z,5.96
2023-01-22T04:40:25.273Z,5.99
2023-01-22T04:41:25.257Z,6.06
2023-01-22T04:42:25.255Z,6.03
2023-01-22T04:43:25.376Z,5.96
2023-01-22T04:44:25.248Z,5.94
2023-01-22T04:45:25.240Z,5.96
2023-01-22T04:46:25.256Z,5.90
2023-01-22T04:47:25.222Z,5.94
2023-01-22T04:48:25.235Z,6.06
2023-01-22T04:49:25.216Z,6.01
2023-01-22T04:50:25.222Z,5.99
2023-01-22T04:51:25.291Z,6.01
2023-01-22T04:52:25.208Z,5.90
2023-01-22T04:53:25.198Z,5.94
2023-01-22T04:54:25.199Z,5.91
2023-01-22T04:55:25.186Z,6.00
2023-01-22T04:56:25.186Z,5.91
2023-01-22T04:57:25.179Z,5.78
2023-01-22T04:58:25.169Z,5.90
2023-01-22T04:59:25.287Z,5.68
2023-01-22T05:00:25.162Z,5.90
2023-01-22T05:01:25.264Z,5.81
2023-01-22T05:02:25.213Z,5.85
2023-01-22T05:03:25.141Z,5.76
2023-01-22T05:04:25.135Z,5.76
2023-01-22T05:05:25.146Z,5.82
2023-01-22T05:06:25.131Z,5.68
2023-01-22T05:07:25.122Z,5.51
2023-01-22T05:08:25.123Z,5.54
2023-01-22T05:09:25.121Z,5.68
2023-01-22T05:10:25.117Z,5.57
2023-01-22T05:11:25.100Z,5.58
2023-01-22T05:12:25.105Z,5.67
2023-01-22T05:13:25.089Z,5.64
2023-01-22T05:14:25.108Z,5.57
2023-01-22T05:15:25.483Z,5.64
2023-01-22T05:16:25.076Z,5.46
2023-01-22T05:17:25.065Z,5.49
2023-01-22T05:18:25.070Z,5.53
2023-01-22T05:19:25.054Z,5.49
2023-01-22T05:20:25.051Z,5.56
2023-01-22T05:21:25.046Z,5.49
2023-01-22T05:22:25.042Z,5.43
2023-01-22T05:23:25.049Z,5.40
2023-01-22T05:24:25.031Z,5.45
2023-01-22T05:25:25.033Z,5.48
2023-01-22T05:26:25.030Z,5.36
2023-01-22T05:27:25.017Z,5.53
2023-01-22T05:28:25.022Z,5.60
2023-01-22T05:29:25.001Z,5.76
2023-01-22T05:30:25.071Z,5.78
2023-01-22T05:31:25.184Z,5.72
2023-01-22T05:32:24.988Z,5.67
2023-01-22T05:33:24.987Z,5.72
2023-01-22T05:34:24.978Z,5.72
2023-01-22T05:35:24.970Z,5.72
2023-01-22T05:36:24.975Z,5.79
2023-01-22T05:37:24.959Z,5.89
2023-01-22T05:38:24.956Z,5.79
2023-01-22T05:39:24.952Z,5.85
2023-01-22T05:40:24.953Z,5.91
2023-01-22T05:41:24.937Z,5.90
2023-01-22T05:42:24.938Z,5.94
2023-01-22T05:43:24.932Z,5.83
2023-01-22T05:44:24.924Z,5.86
2023-01-22T05:45:24.922Z,5.86
2023-01-22T05:46:24.956Z,5.94
2023-01-22T05:47:25.020Z,5.86
2023-01-22T05:48:24.901Z,5.89
2023-01-22T05:49:24.895Z,5.90
2023-01-22T05:50:24.892Z,5.89
2023-01-22T05:51:25.071Z,5.72
2023-01-22T05:52:24.885Z,5.72
2023-01-22T05:53:24.875Z,5.74
2023-01-22T05:54:24.873Z,5.78
2023-01-22T05:55:24.859Z,5.71
2023-01-22T05:56:24.868Z,5.85
2023-01-22T05:57:24.853Z,5.78
2023-01-22T05:58:24.851Z,5.56
2023-01-22T05:59:24.841Z,5.68
2023-01-22T06:00:24.845Z,5.68
2023-01-22T06:01:24.853Z,5.71
2023-01-22T06:02:24.883Z,5.81
2023-01-22T06:03:24.980Z,5.79
2023-01-22T06:04:24.825Z,5.83
2023-01-22T06:05:24.967Z,5.97
2023-01-22T06:06:24.815Z,5.94
2023-01-22T06:07:24.821Z,5.97
2023-01-22T06:08:24.793Z,5.99
2023-01-22T06:09:24.787Z,6.01
2023-01-22T06:10:24.789Z,5.94
2023-01-22T06:11:24.772Z,5.90
2023-01-22T06:12:24.773Z,5.86
2023-01-22T06:13:25.097Z,5.91
2023-01-22T06:14:24.767Z,5.91
2023-01-22T06:15:24.755Z,6.04
2023-01-22T06:16:24.758Z,5.99
2023-01-22T06:17:24.741Z,6.08
2023-01-22T06:18:24.737Z,6.01
2023-01-22T06:19:24.849Z,6.04
2023-01-22T06:20:24.735Z,6.01
2023-01-22T06:21:24.723Z,6.01
2023-01-22T06:22:24.721Z,6.03
2023-01-22T06:23:24.711Z,5.94
2023-01-22T06:24:24.731Z,5.96
2023-01-22T06:25:24.700Z,6.09
2023-01-22T06:26:24.698Z,6.00
2023-01-22T06:27:24.687Z,6.03
2023-01-22T06:28:24.690Z,5.90
2023-01-22T06:29:24.678Z,5.90
2023-01-22T06:30:24.680Z,5.90
2023-01-22T06:31:24.788Z,5.96
2023-01-22T06:32:24.668Z,5.97
2023-01-22T06:33:24.663Z,5.99
2023-01-22T06:34:24.659Z,5.99
2023-01-22T06:35:24.765Z,6.00
2023-01-22T06:36:24.649Z,6.08
2023-01-22T06:37:24.644Z,6.00
2023-01-22T06:38:24.632Z,6.03
2023-01-22T06:39:24.632Z,6.14
2023-01-22T06:40:24.619Z,6.17
2023-01-22T06:41:24.613Z,6.12
2023-01-22T06:42:24.615Z,6.14
2023-01-22T06:43:24.603Z,6.06
2023-01-22T06:44:24.605Z,6.14
2023-01-22T06:45:24.592Z,6.15
2023-01-22T06:46:24.647Z,6.11
2023-01-22T06:47:24.582Z,5.99
2023-01-22T06:48:24.582Z,5.99
2023-01-22T06:49:24.573Z,6.11
2023-01-22T06:50:24.581Z,6.03
2023-01-22T06:51:24.759Z,5.97
2023-01-22T06:52:24.558Z,6.03
2023-01-22T06:53:24.557Z,6.01
2023-01-22T06:54:24.568Z,6.06
2023-01-22T06:55:24.541Z,6.08
2023-01-22T06:56:24.537Z,6.00
2023-01-22T06:57:24.540Z,5.94
2023-01-22T06:58:24.530Z,5.97
2023-01-22T06:59:24.522Z,6.00
2023-01-22T07:00:24.522Z,6.08
2023-01-22T07:01:24.512Z,6.04
2023-01-22T07:02:24.507Z,6.00
2023-01-22T07:03:24.544Z,6.04
2023-01-22T07:04:24.495Z,6.01
2023-01-22T07:05:24.497Z,6.15
2023-01-22T07:06:24.487Z,6.17
2023-01-22T07:07:24.608Z,6.17
2023-01-22T07:08:24.480Z,6.15
2023-01-22T07:09:24.472Z,6.21
2023-01-22T07:10:24.465Z,6.12
2023-01-22T07:11:24.458Z,6.19
2023-01-22T07:12:24.454Z,6.15
2023-01-22T07:13:24.446Z,6.14
2023-01-22T07:14:36.469Z,6.14
2023-01-22T07:15:24.432Z,6.17
2023-01-22T07:16:24.512Z,6.15
2023-01-22T07:17:24.425Z,6.15
2023-01-22T07:18:24.432Z,6.19
2023-01-22T07:19:24.412Z,6.18
2023-01-22T07:20:24.412Z,6.06
2023-01-22T07:21:24.404Z,6.14
2023-01-22T07:22:24.394Z,6.17
2023-01-22T07:23:24.506Z,6.12
2023-01-22T07:24:24.392Z,6.15
2023-01-22T07:25:24.385Z,6.12
2023-01-22T07:26:24.388Z,6.14
2023-01-22T07:31:22.317Z,6.12
2023-01-22T07:32:22.278Z,5.96
2023-01-22T07:33:22.263Z,6.09
2023-01-22T07:34:22.272Z,6.12
2023-01-22T07:35:22.255Z,6.06
2023-01-22T07:36:22.256Z,5.96
2023-01-22T07:37:22.245Z,6.06
2023-01-22T07:38:22.243Z,6.12
2023-01-22T07:39:22.347Z,6.11
2023-01-22T07:40:22.234Z,6.01
2023-01-22T07:41:26.011Z,5.97
2023-01-22T07:42:22.225Z,6.06
2023-01-22T07:43:22.216Z,6.04
2023-01-22T07:44:22.208Z,6.01
2023-01-22T07:45:22.216Z,6.09
2023-01-22T07:46:22.237Z,6.11
2023-01-22T07:47:22.195Z,6.00
2023-01-22T07:48:22.189Z,5.90
2023-01-22T07:49:22.188Z,5.89
2023-01-22T07:50:22.187Z,6.00
2023-01-22T07:51:22.284Z,6.03
2023-01-22T07:52:22.180Z,5.99
2023-01-22T07:53:22.162Z,6.08
2023-01-22T07:54:22.160Z,6.09
2023-01-22T07:55:22.280Z,6.21
2023-01-22T07:56:22.147Z,6.21
2023-01-22T07:57:22.140Z,6.17
2023-01-22T07:58:22.145Z,6.22
2023-01-22T07:59:22.135Z,6.15
2023-01-22T08:00:22.131Z,6.34
2023-01-22T08:01:22.131Z,6.37
2023-01-22T08:02:22.217Z,6.31
2023-01-22T08:03:22.113Z,6.41
2023-01-22T08:04:22.106Z,6.43
2023-01-22T08:05:22.104Z,6.41
2023-01-22T08:06:22.099Z,6.41
2023-01-22T08:07:22.087Z,6.44
2023-01-22T08:08:22.086Z,6.38
2023-01-22T08:09:22.080Z,6.28
2023-01-22T08:10:22.078Z,6.27
2023-01-22T08:11:22.187Z,6.34
2023-01-22T08:12:22.067Z,6.43
2023-01-22T08:13:22.062Z,6.51
2023-01-22T08:14:22.063Z,6.49
2023-01-22T08:15:22.047Z,6.43
2023-01-22T08:16:22.084Z,6.30
2023-01-22T08:17:22.053Z,6.36
2023-01-22T08:18:23.036Z,6.34
2023-01-22T08:19:22.036Z,6.40
2023-01-22T08:20:22.029Z,6.28
2023-01-22T08:21:22.014Z,6.34
2023-01-22T08:22:22.018Z,6.30
2023-01-22T08:23:22.269Z,6.44
2023-01-22T08:24:22.004Z,6.36
2023-01-22T08:25:21.997Z,6.28
2023-01-22T08:26:21.999Z,6.12
2023-01-22T08:27:22.105Z,6.06
2023-01-22T08:28:21.990Z,5.94
2023-01-22T08:29:21.978Z,6.08
2023-01-22T08:30:21.979Z,6.00
2023-01-22T08:31:27.790Z,6.08
2023-01-22T08:32:22.144Z,6.14
2023-01-22T08:33:21.961Z,6.14
2023-01-22T08:34:21.964Z,6.11
2023-01-22T08:35:21.942Z,6.12
2023-01-22T08:36:21.948Z,6.04
2023-01-22T08:37:21.937Z,6.09
2023-01-22T08:38:21.936Z,5.96
2023-01-22T08:39:21.938Z,5.99
2023-01-22T08:40:21.923Z,6.00
2023-01-22T08:41:21.928Z,6.03
2023-01-22T08:42:21.911Z,6.18
2023-01-22T08:43:22.036Z,6.12
2023-01-22T08:44:21.898Z,6.09
2023-01-22T08:45:21.891Z,6.08
2023-01-22T08:46:21.891Z,6.15
2023-01-22T08:47:21.888Z,6.17
2023-01-22T08:48:21.890Z,6.17
2023-01-22T08:49:21.877Z,6.17
2023-01-22T08:50:21.869Z,6.17
2023-01-22T08:51:21.888Z,6.12
2023-01-22T08:52:21.861Z,6.14
2023-01-22T08:53:21.852Z,5.96
2023-01-22T08:54:21.853Z,5.97
2023-01-22T08:55:21.862Z,5.97
2023-01-22T08:56:21.838Z,6.04
2023-01-22T08:57:21.836Z,6.04
2023-01-22T08:58:21.830Z,5.90
2023-01-22T08:59:21.946Z,5.85
2023-01-22T09:00:21.822Z,5.90
2023-01-22T09:01:21.962Z,5.96
2023-01-22T09:02:21.846Z,5.97
2023-01-22T09:03:21.810Z,5.96
2023-01-22T09:04:21.800Z,5.81
2023-01-22T09:05:21.788Z,5.86
2023-01-22T09:06:21.787Z,5.96
2023-01-22T09:07:21.789Z,5.97
2023-01-22T09:08:21.799Z,5.90
2023-01-22T09:09:21.770Z,5.86
2023-01-22T09:10:22.332Z,5.96
2023-01-22T09:11:21.758Z,6.06
2023-01-22T09:12:21.758Z,6.00
2023-01-22T09:13:21.752Z,5.97
2023-01-22T09:14:21.743Z,6.03
2023-01-22T09:15:21.864Z,6.08
2023-01-22T09:16:21.767Z,6.12
2023-01-22T09:17:21.732Z,6.01
2023-01-22T09:18:21.727Z,6.00
2023-01-22T09:19:21.717Z,5.93
2023-01-22T09:20:21.716Z,6.04
2023-01-22T09:21:21.705Z,6.12
2023-01-22T09:22:21.705Z,6.11
2023-01-22T09:23:21.696Z,6.09
2023-01-22T09:24:21.691Z,6.12
2023-01-22T09:25:21.682Z,6.06
2023-01-22T09:26:21.688Z,6.25
2023-01-22T09:27:21.675Z,6.06
2023-01-22T09:28:21.676Z,6.17
2023-01-22T09:29:21.666Z,6.03
2023-01-22T09:30:21.761Z,5.91
2023-01-22T09:31:21.831Z,5.93
2023-01-22T09:32:21.650Z,5.83
2023-01-22T09:33:21.649Z,5.82
2023-01-22T09:34:21.643Z,5.97
2023-01-22T09:35:21.631Z,5.81
2023-01-22T09:36:21.629Z,5.89
2023-01-22T09:37:21.627Z,6.06
2023-01-22T09:38:21.629Z,6.11
2023-01-22T09:39:21.618Z,6.12
2023-01-22T09:40:21.710Z,6.30
2023-01-22T09:41:21.610Z,6.28
2023-01-22T09:42:21.599Z,6.21
2023-01-22T09:43:21.591Z,6.12
2023-01-22T09:44:21.591Z,6.25
2023-01-22T09:45:21.581Z,6.14
2023-01-22T09:46:21.613Z,6.00
2023-01-22T09:47:21.698Z,6.04
2023-01-22T09:48:21.574Z,6.01
2023-01-22T09:49:21.558Z,6.01
2023-01-22T09:50:21.641Z,6.09
2023-01-22T09:51:21.594Z,6.09
2023-01-22T09:52:21.549Z,6.08
2023-01-22T09:53:21.560Z,6.00
2023-01-22T09:54:21.543Z,6.03
2023-01-22T09:55:21.527Z,6.03
2023-01-22T09:56:21.536Z,6.12
2023-01-22T09:57:31.174Z,6.01
2023-01-22T09:58:21.529Z,6.06
2023-01-22T09:59:21.504Z,6.01
2023-01-22T10:00:21.835Z,6.03
2023-01-22T10:01:21.542Z,6.09
2023-01-22T10:02:21.523Z,6.17
2023-01-22T10:03:22.854Z,6.17
2023-01-22T10:04:21.496Z,6.28
2023-01-22T10:05:21.481Z,6.37
2023-01-22T10:06:21.475Z,6.34
2023-01-22T10:07:21.469Z,6.40
2023-01-22T10:08:21.464Z,6.44
2023-01-22T10:09:21.451Z,6.43
2023-01-22T10:10:21.511Z,6.31
2023-01-22T10:11:21.447Z,6.43
2023-01-22T10:12:21.439Z,6.36
2023-01-22T10:13:21.437Z,6.31
2023-01-22T10:14:21.439Z,6.31
2023-01-22T10:15:21.417Z,6.30
2023-01-22T10:16:21.457Z,6.17
2023-01-22T10:17:21.414Z,6.09
2023-01-22T10:18:21.413Z,6.30
2023-01-22T10:19:21.521Z,6.40
2023-01-22T10:20:21.480Z,6.37
2023-01-22T10:21:21.389Z,6.51
2023-01-22T10:22:21.389Z,6.55
2023-01-22T10:23:21.379Z,6.58
2023-01-22T10:24:21.384Z,6.67
2023-01-22T10:25:21.369Z,6.61
2023-01-22T10:26:21.372Z,6.58
2023-01-22T10:27:21.362Z,6.41
2023-01-22T10:28:21.359Z,6.54
2023-01-22T10:29:21.347Z,6.55
2023-01-22T10:30:21.588Z,6.55
2023-01-22T10:31:23.143Z,6.43
2023-01-22T10:32:21.338Z,6.51
2023-01-22T10:33:21.331Z,6.38
2023-01-22T10:34:21.332Z,6.40
2023-01-22T10:35:21.435Z,6.44
2023-01-22T10:36:21.313Z,6.49
2023-01-22T10:37:21.311Z,6.40
2023-01-22T10:38:21.309Z,6.33
2023-01-22T10:39:21.315Z,6.34
2023-01-22T10:40:21.376Z,6.17
2023-01-22T10:41:21.291Z,6.30
2023-01-22T10:42:21.284Z,6.30
2023-01-22T10:43:21.286Z,6.33
2023-01-22T10:44:21.299Z,6.44
2023-01-22T10:45:21.266Z,6.49
2023-01-22T10:46:21.288Z,6.52
2023-01-22T10:47:21.259Z,6.61
2023-01-22T10:48:21.256Z,6.56
2023-01-22T10:49:21.249Z,6.51
2023-01-22T10:50:21.587Z,6.41
2023-01-22T10:51:27.230Z,6.46
2023-01-22T10:52:21.362Z,6.54
2023-01-22T10:53:21.235Z,6.58
2023-01-22T10:54:21.225Z,6.59
2023-01-22T10:55:21.221Z,6.61
2023-01-22T10:56:21.216Z,6.69
2023-01-22T10:57:21.213Z,6.85
2023-01-22T10:58:21.210Z,6.87
2023-01-22T10:59:21.202Z,6.88
2023-01-22T11:00:21.783Z,6.99
2023-01-22T11:01:21.229Z,6.89
2023-01-22T11:02:21.229Z,6.91
2023-01-22T11:03:21.178Z,6.87
2023-01-22T11:04:21.190Z,6.98
2023-01-22T11:05:21.180Z,7.12
2023-01-22T11:06:21.173Z,7.03
2023-01-22T11:07:21.163Z,7.03
2023-01-22T11:08:21.272Z,6.94
2023-01-22T11:09:21.155Z,6.88
2023-01-22T11:10:21.543Z,6.81
2023-01-22T11:11:21.149Z,6.88
2023-01-22T11:12:21.147Z,6.73
2023-01-22T11:13:21.138Z,6.91
2023-01-22T11:14:21.122Z,6.84
2023-01-22T11:15:21.134Z,6.79
2023-01-22T11:16:21.133Z,6.84
2023-01-22T11:17:21.121Z,6.89
2023-01-22T11:18:21.112Z,6.76
2023-01-22T11:19:32.626Z,6.79
2023-01-22T11:20:21.640Z,6.73
2023-01-22T11:21:21.105Z,6.79
2023-01-22T11:22:21.088Z,6.79
2023-01-22T11:23:21.088Z,6.64
2023-01-22T11:24:21.205Z,6.76
2023-01-22T11:25:21.070Z,6.74
2023-01-22T11:26:21.073Z,6.85
2023-01-22T11:27:21.059Z,7.02
2023-01-22T11:28:21.071Z,6.94
2023-01-22T11:29:21.051Z,7.05
2023-01-22T11:30:21.520Z,7.09
2023-01-22T11:31:21.121Z,6.99
2023-01-22T11:32:21.045Z,7.07
2023-01-22T11:33:21.036Z,7.02
2023-01-22T11:34:21.039Z,7.03
2023-01-22T11:35:21.035Z,6.84
2023-01-22T11:36:21.026Z,6.98
2023-01-22T11:37:21.017Z,6.99
2023-01-22T11:38:21.010Z,6.92
2023-01-22T11:39:21.008Z,6.99
2023-01-22T11:40:21.588Z,6.97
2023-01-22T11:41:21.001Z,7.03
2023-01-22T11:42:20.994Z,7.02
2023-01-22T11:43:21.018Z,7.02
2023-01-22T11:44:21.011Z,7.15
2023-01-22T11:45:20.977Z,7.20
2023-01-22T11:46:21.056Z,7.35
2023-01-22T11:47:20.989Z,7.37
2023-01-22T11:48:20.962Z,7.23
2023-01-22T11:49:20.970Z,7.31
2023-01-22T11:50:21.309Z,7.34
2023-01-22T11:51:21.078Z,7.37
2023-01-22T11:52:20.944Z,7.30
2023-01-22T11:53:20.942Z,7.30
2023-01-22T11:54:20.935Z,7.34
2023-01-22T11:55:20.941Z,7.32
2023-01-22T11:56:21.049Z,7.30
2023-01-22T11:57:20.920Z,7.24
2023-01-22T11:58:20.921Z,7.13
2023-01-22T11:59:20.931Z,7.10
2023-01-22T12:00:21.211Z,7.25
2023-01-22T12:01:20.911Z,7.17
2023-01-22T12:02:20.972Z,7.31
2023-01-22T12:03:20.907Z,7.35
2023-01-22T12:04:20.904Z,7.28
2023-01-22T12:05:20.888Z,7.40
2023-01-22T12:06:20.877Z,7.35
2023-01-22T12:07:20.878Z,7.50
2023-01-22T12:08:20.873Z,7.46
2023-01-22T12:09:20.872Z,7.52
2023-01-22T12:10:21.262Z,7.46
2023-01-22T12:11:20.859Z,7.53
2023-01-22T12:12:20.964Z,7.50
2023-01-22T12:13:20.851Z,7.52
2023-01-22T12:14:20.848Z,7.63
2023-01-22T12:15:20.848Z,7.64
2023-01-22T12:16:20.871Z,7.46
2023-01-22T12:17:20.835Z,7.48
2023-01-22T12:18:20.830Z,7.28
2023-01-22T12:19:20.827Z,7.35
2023-01-22T12:20:21.108Z,7.37
2023-01-22T12:21:20.814Z,7.42
2023-01-22T12:22:20.815Z,7.46
2023-01-22T12:23:20.804Z,7.39
2023-01-22T12:24:20.798Z,7.24
2023-01-22T12:25:20.801Z,7.35
2023-01-22T12:26:20.796Z,7.17
2023-01-22T12:27:20.798Z,7.20
2023-01-22T12:28:26.776Z,7.25
2023-01-22T12:29:20.891Z,7.25
2023-01-22T12:30:20.969Z,7.13
2023-01-22T12:31:20.847Z,7.02
2023-01-22T12:32:20.759Z,7.05
2023-01-22T12:33:20.772Z,6.95
2023-01-22T12:34:20.752Z,7.06
2023-01-22T12:35:20.753Z,6.98
2023-01-22T12:36:20.755Z,6.98
2023-01-22T12:37:20.745Z,7.12
2023-01-22T12:38:20.736Z,7.21
2023-01-22T12:39:20.739Z,7.25
2023-01-22T12:40:20.984Z,7.12
2023-01-22T12:41:20.724Z,7.20
2023-01-22T12:42:20.723Z,7.16
2023-01-22T12:43:20.719Z,7.17
2023-01-22T12:44:20.705Z,6.99
2023-01-22T12:45:20.829Z,7.12
2023-01-22T12:46:20.734Z,7.10
2023-01-22T12:47:20.706Z,7.23
2023-01-22T12:48:20.698Z,7.28
2023-01-22T12:49:20.700Z,7.24
2023-01-22T12:50:21.013Z,6.98
2023-01-22T12:51:20.711Z,6.99
2023-01-22T12:52:20.668Z,7.02
2023-01-22T12:53:20.672Z,6.98
2023-01-22T12:54:20.664Z,6.81
2023-01-22T12:55:20.660Z,6.74
2023-01-22T12:56:20.660Z,6.64
2023-01-22T12:57:20.673Z,6.69
2023-01-22T12:58:20.646Z,6.70
2023-01-22T12:59:20.638Z,6.67
2023-01-22T13:00:20.759Z,6.76
2023-01-22T13:01:20.760Z,6.79
2023-01-22T13:02:20.752Z,6.76
2023-01-22T13:03:30.649Z,6.91
2023-01-22T13:04:20.620Z,6.92
2023-01-22T13:05:20.629Z,6.77
2023-01-22T13:06:20.610Z,6.81
2023-01-22T13:07:20.603Z,6.84
2023-01-22T13:08:20.660Z,6.97
2023-01-22T13:09:20.599Z,7.02
2023-01-22T13:10:21.198Z,7.07
2023-01-22T13:11:20.592Z,7.09
2023-01-22T13:12:20.582Z,6.99
2023-01-22T13:13:20.579Z,6.99
2023-01-22T13:14:20.567Z,6.95
2023-01-22T13:15:20.588Z,7.05
2023-01-22T13:16:20.580Z,7.13
2023-01-22T13:17:20.710Z,6.88
2023-01-22T13:18:20.555Z,6.89
2023-01-22T13:19:20.557Z,7.06
2023-01-22T13:20:20.960Z,7.02
2023-01-22T13:21:20.544Z,7.02
2023-01-22T13:22:20.535Z,7.03